Aris T. — SVHY — position and weather

sailwx.info

Track history (hours):
 
Tides and Currents Weather Stations Pressure Air Temp Water Temp Dewpoint Dewpoint Depression Visibility Wind Speed Wind Dir Waves Ship Positions

Aris T.

Last reported at 2018-May-06 11:34 UTC. Time now 2018-May-24 02:21 UTC.
Position S 32°45' E 029°55'.
Warning: this ship's position is 17 days out of date.

Length 229 m; draft 7.5 m.

Type: Cargo ship. MMSI: 240626000.

Date/timePositionNaut miles runAvg speedWind from/ knotsBaromVisibWave heightAir tempDewpointWater temp
2018-May-06 11:34S 32°45' E 029°55'110.0
2018-May-06 11:30S 32°45' E 029°56'610.0
2018-May-06 10:56S 32°42' E 030°02'410.1
2018-May-06 10:30S 32°40' E 030°07'510.1
2018-May-06 10:00S 32°38' E 030°12'510.1
2018-May-06 09:27S 32°36' E 030°18'510.0
2018-May-06 08:59S 32°34' E 030°23'510.0
2018-May-06 08:30S 32°31' E 030°28'510.1
2018-May-06 08:00S 32°29' E 030°33'510.0
2018-May-06 07:30S 32°27' E 030°39'510.1
2018-May-06 07:00S 32°25' E 030°44'710.1
2018-May-06 06:17S 32°21' E 030°52'1310.1
2018-May-06 05:01S 32°16' E 031°05'010.5
2018-May-06 05:00S 32°15' E 031°06'510.0
2018-May-06 04:30S 32°13' E 031°11'510.0
2018-May-06 04:00S 32°11' E 031°16'510.0
2018-May-06 03:30S 32°09' E 031°22'2510.1
2018-May-06 01:02S 31°58' E 031°48'010.0
2018-May-06 01:00S 31°58' E 031°48'510.1
2018-May-06 00:30S 31°55' E 031°53'710.0
2018-May-05 23:48S 31°52' E 032°01'810.1
2018-May-05 23:01S 31°49' E 032°09'010.8
2018-May-05 23:00S 31°49' E 032°09'510.0
2018-May-05 22:29S 31°46' E 032°15'  
Track history (hours):
 
Tides and Currents Weather Stations Pressure Air Temp Water Temp Dewpoint Dewpoint Depression Visibility Wind Speed Wind Dir Waves Ship Positions

Aris T.

Last reported at 2018-May-06 11:34 UTC. Time now 2018-May-24 02:21 UTC.
Position S 32°45' E 029°55'.
Warning: this ship's position is 17 days out of date.

Length 229 m; draft 7.5 m.

Type: Cargo ship. MMSI: 240626000.

Date/timePositionNaut miles runAvg speedWind from/ knotsBaromVisibWave heightAir tempDewpointWater temp
2018-May-06 11:34S 32°45' E 029°55'110.0
2018-May-06 11:30S 32°45' E 029°56'610.0
2018-May-06 10:56S 32°42' E 030°02'410.1
2018-May-06 10:30S 32°40' E 030°07'510.1
2018-May-06 10:00S 32°38' E 030°12'510.1
2018-May-06 09:27S 32°36' E 030°18'510.0
2018-May-06 08:59S 32°34' E 030°23'510.0
2018-May-06 08:30S 32°31' E 030°28'510.1
2018-May-06 08:00S 32°29' E 030°33'510.0
2018-May-06 07:30S 32°27' E 030°39'510.1
2018-May-06 07:00S 32°25' E 030°44'710.1
2018-May-06 06:17S 32°21' E 030°52'1310.1
2018-May-06 05:01S 32°16' E 031°05'010.5
2018-May-06 05:00S 32°15' E 031°06'510.0
2018-May-06 04:30S 32°13' E 031°11'510.0
2018-May-06 04:00S 32°11' E 031°16'510.0
2018-May-06 03:30S 32°09' E 031°22'2510.1
2018-May-06 01:02S 31°58' E 031°48'010.0
2018-May-06 01:00S 31°58' E 031°48'510.1
2018-May-06 00:30S 31°55' E 031°53'710.0
2018-May-05 23:48S 31°52' E 032°01'810.1
2018-May-05 23:01S 31°49' E 032°09'010.8
2018-May-05 23:00S 31°49' E 032°09'510.0
2018-May-05 22:29S 31°46' E 032°15'  

Dump ship's entire track history